sensor_id;sensor_type;location;lat;lon;timestamp;P1;durP1;ratioP1;P2;durP2;ratioP2
1987;SDS011;12775;46.994;15.498;2023-05-10T00:01:25;4.58;;;3.84;;
1987;SDS011;12775;46.994;15.498;2023-05-10T00:03:52;4.80;;;4.24;;
1987;SDS011;12775;46.994;15.498;2023-05-10T00:06:20;5.50;;;3.98;;
1987;SDS011;12775;46.994;15.498;2023-05-10T00:08:47;4.20;;;3.80;;
1987;SDS011;12775;46.994;15.498;2023-05-10T00:11:14;4.12;;;3.76;;
1987;SDS011;12775;46.994;15.498;2023-05-10T00:13:42;5.72;;;3.42;;
1987;SDS011;12775;46.994;15.498;2023-05-10T00:16:09;8.02;;;4.66;;
1987;SDS011;12775;46.994;15.498;2023-05-10T00:18:36;5.40;;;4.90;;
1987;SDS011;12775;46.994;15.498;2023-05-10T00:21:04;6.48;;;5.14;;
1987;SDS011;12775;46.994;15.498;2023-05-10T00:23:31;8.54;;;4.74;;
1987;SDS011;12775;46.994;15.498;2023-05-10T00:25:58;5.50;;;4.92;;
1987;SDS011;12775;46.994;15.498;2023-05-10T00:28:27;4.04;;;3.64;;
1987;SDS011;12775;46.994;15.498;2023-05-10T00:30:53;5.18;;;4.78;;
1987;SDS011;12775;46.994;15.498;2023-05-10T00:33:20;5.42;;;4.58;;
1987;SDS011;12775;46.994;15.498;2023-05-10T00:35:48;4.96;;;4.44;;
1987;SDS011;12775;46.994;15.498;2023-05-10T00:38:15;4.82;;;4.38;;
1987;SDS011;12775;46.994;15.498;2023-05-10T00:43:27;5.98;;;5.48;;
1987;SDS011;12775;46.994;15.498;2023-05-10T00:45:53;4.44;;;4.04;;
1987;SDS011;12775;46.994;15.498;2023-05-10T00:48:21;6.20;;;4.58;;
1987;SDS011;12775;46.994;15.498;2023-05-10T00:50:48;6.44;;;4.54;;
1987;SDS011;12775;46.994;15.498;2023-05-10T00:53:15;6.26;;;4.00;;
1987;SDS011;12775;46.994;15.498;2023-05-10T00:55:44;4.32;;;4.00;;
1987;SDS011;12775;46.994;15.498;2023-05-10T00:58:11;7.44;;;4.58;;
1987;SDS011;12775;46.994;15.498;2023-05-10T01:00:38;5.28;;;4.78;;
1987;SDS011;12775;46.994;15.498;2023-05-10T01:03:05;5.50;;;5.00;;
1987;SDS011;12775;46.994;15.498;2023-05-10T01:05:32;5.38;;;4.94;;
1987;SDS011;12775;46.994;15.498;2023-05-10T01:07:59;5.42;;;4.90;;
1987;SDS011;12775;46.994;15.498;2023-05-10T01:10:26;5.96;;;4.92;;
1987;SDS011;12775;46.994;15.498;2023-05-10T01:12:55;4.62;;;4.22;;
1987;SDS011;12775;46.994;15.498;2023-05-10T01:15:21;5.36;;;4.86;;
1987;SDS011;12775;46.994;15.498;2023-05-10T01:17:49;5.50;;;4.54;;
1987;SDS011;12775;46.994;15.498;2023-05-10T01:20:15;5.98;;;5.00;;
1987;SDS011;12775;46.994;15.498;2023-05-10T01:32:26;5.10;;;4.60;;
1987;SDS011;12775;46.994;15.498;2023-05-10T01:36:55;6.88;;;4.54;;
1987;SDS011;12775;46.994;15.498;2023-05-10T01:39:25;5.40;;;4.90;;
1987;SDS011;12775;46.994;15.498;2023-05-10T01:41:57;4.08;;;3.74;;
1987;SDS011;12775;46.994;15.498;2023-05-10T01:44:31;4.02;;;3.68;;
1987;SDS011;12775;46.994;15.498;2023-05-10T01:46:58;4.88;;;4.38;;
1987;SDS011;12775;46.994;15.498;2023-05-10T01:49:25;4.44;;;4.04;;
1987;SDS011;12775;46.994;15.498;2023-05-10T01:51:53;5.42;;;4.46;;
1987;SDS011;12775;46.994;15.498;2023-05-10T01:54:21;4.52;;;4.12;;
1987;SDS011;12775;46.994;15.498;2023-05-10T01:56:47;4.76;;;4.32;;
1987;SDS011;12775;46.994;15.498;2023-05-10T01:59:15;5.88;;;4.78;;
1987;SDS011;12775;46.994;15.498;2023-05-10T02:01:42;7.62;;;4.54;;
1987;SDS011;12775;46.994;15.498;2023-05-10T02:04:10;5.74;;;5.18;;
1987;SDS011;12775;46.994;15.498;2023-05-10T02:06:37;4.54;;;4.14;;
1987;SDS011;12775;46.994;15.498;2023-05-10T02:09:04;5.18;;;4.74;;
1987;SDS011;12775;46.994;15.498;2023-05-10T02:11:32;5.34;;;4.64;;
1987;SDS011;12775;46.994;15.498;2023-05-10T02:13:59;5.64;;;5.14;;
1987;SDS011;12775;46.994;15.498;2023-05-10T02:16:27;5.42;;;4.32;;
1987;SDS011;12775;46.994;15.498;2023-05-10T02:18:54;5.40;;;4.90;;
1987;SDS011;12775;46.994;15.498;2023-05-10T02:21:21;6.00;;;4.58;;
1987;SDS011;12775;46.994;15.498;2023-05-10T02:23:49;5.36;;;4.52;;
1987;SDS011;12775;46.994;15.498;2023-05-10T02:26:16;5.00;;;4.60;;
1987;SDS011;12775;46.994;15.498;2023-05-10T02:28:44;6.88;;;5.98;;
1987;SDS011;12775;46.994;15.498;2023-05-10T02:31:11;7.92;;;5.00;;
1987;SDS011;12775;46.994;15.498;2023-05-10T02:33:38;5.56;;;5.06;;
1987;SDS011;12775;46.994;15.498;2023-05-10T02:36:07;4.94;;;4.44;;
1987;SDS011;12775;46.994;15.498;2023-05-10T02:38:34;5.58;;;5.00;;
1987;SDS011;12775;46.994;15.498;2023-05-10T02:41:02;4.82;;;4.24;;
1987;SDS011;12775;46.994;15.498;2023-05-10T02:43:29;5.12;;;4.72;;
1987;SDS011;12775;46.994;15.498;2023-05-10T02:45:56;5.60;;;5.08;;
1987;SDS011;12775;46.994;15.498;2023-05-10T02:48:24;4.96;;;4.56;;
1987;SDS011;12775;46.994;15.498;2023-05-10T02:50:52;7.30;;;3.80;;
1987;SDS011;12775;46.994;15.498;2023-05-10T02:53:23;4.88;;;4.38;;
1987;SDS011;12775;46.994;15.498;2023-05-10T02:55:49;4.14;;;3.74;;
1987;SDS011;12775;46.994;15.498;2023-05-10T02:58:15;4.56;;;4.04;;
1987;SDS011;12775;46.994;15.498;2023-05-10T03:00:43;6.92;;;4.72;;
1987;SDS011;12775;46.994;15.498;2023-05-10T03:03:10;4.10;;;3.80;;
1987;SDS011;12775;46.994;15.498;2023-05-10T03:05:37;5.22;;;4.62;;
1987;SDS011;12775;46.994;15.498;2023-05-10T03:08:05;6.28;;;5.26;;
1987;SDS011;12775;46.994;15.498;2023-05-10T03:10:33;6.08;;;5.48;;
1987;SDS011;12775;46.994;15.498;2023-05-10T03:13:06;5.06;;;4.56;;
1987;SDS011;12775;46.994;15.498;2023-05-10T03:18:15;8.00;;;5.10;;
1987;SDS011;12775;46.994;15.498;2023-05-10T03:20:57;5.48;;;4.34;;
1987;SDS011;12775;46.994;15.498;2023-05-10T03:23:26;5.48;;;4.98;;
1987;SDS011;12775;46.994;15.498;2023-05-10T03:25:51;5.74;;;5.24;;
1987;SDS011;12775;46.994;15.498;2023-05-10T03:28:20;5.14;;;4.64;;
1987;SDS011;12775;46.994;15.498;2023-05-10T03:30:46;7.08;;;5.48;;
1987;SDS011;12775;46.994;15.498;2023-05-10T03:33:14;19.22;;;6.70;;
1987;SDS011;12775;46.994;15.498;2023-05-10T03:35:41;6.34;;;5.70;;
1987;SDS011;12775;46.994;15.498;2023-05-10T03:38:08;6.44;;;5.44;;
1987;SDS011;12775;46.994;15.498;2023-05-10T03:40:36;7.92;;;4.28;;
1987;SDS011;12775;46.994;15.498;2023-05-10T03:43:03;11.32;;;4.88;;
1987;SDS011;12775;46.994;15.498;2023-05-10T03:45:30;6.40;;;4.52;;
1987;SDS011;12775;46.994;15.498;2023-05-10T03:47:58;4.86;;;4.22;;
1987;SDS011;12775;46.994;15.498;2023-05-10T03:50:26;7.88;;;5.10;;
1987;SDS011;12775;46.994;15.498;2023-05-10T03:52:53;6.14;;;5.00;;
1987;SDS011;12775;46.994;15.498;2023-05-10T03:55:21;6.40;;;4.70;;
1987;SDS011;12775;46.994;15.498;2023-05-10T03:57:49;5.48;;;5.08;;
1987;SDS011;12775;46.994;15.498;2023-05-10T04:00:16;6.32;;;4.90;;
1987;SDS011;12775;46.994;15.498;2023-05-10T04:02:43;6.08;;;5.02;;
1987;SDS011;12775;46.994;15.498;2023-05-10T04:05:12;7.74;;;4.56;;
1987;SDS011;12775;46.994;15.498;2023-05-10T04:07:41;5.60;;;5.10;;
1987;SDS011;12775;46.994;15.498;2023-05-10T04:10:08;14.10;;;6.48;;
1987;SDS011;12775;46.994;15.498;2023-05-10T04:12:36;7.80;;;5.04;;
1987;SDS011;12775;46.994;15.498;2023-05-10T04:15:04;7.78;;;6.56;;
1987;SDS011;12775;46.994;15.498;2023-05-10T04:17:31;14.18;;;6.62;;
1987;SDS011;12775;46.994;15.498;2023-05-10T04:19:58;10.06;;;6.48;;
1987;SDS011;12775;46.994;15.498;2023-05-10T04:22:25;8.22;;;6.54;;
1987;SDS011;12775;46.994;15.498;2023-05-10T04:24:52;6.66;;;5.96;;
1987;SDS011;12775;46.994;15.498;2023-05-10T04:27:19;6.30;;;5.72;;
1987;SDS011;12775;46.994;15.498;2023-05-10T04:29:45;7.94;;;6.06;;
1987;SDS011;12775;46.994;15.498;2023-05-10T04:32:13;6.42;;;5.82;;
1987;SDS011;12775;46.994;15.498;2023-05-10T04:34:41;5.22;;;4.74;;
1987;SDS011;12775;46.994;15.498;2023-05-10T04:37:09;5.04;;;4.60;;
1987;SDS011;12775;46.994;15.498;2023-05-10T04:39:37;5.38;;;4.88;;
1987;SDS011;12775;46.994;15.498;2023-05-10T04:42:04;9.16;;;5.30;;
1987;SDS011;12775;46.994;15.498;2023-05-10T04:44:32;8.28;;;6.12;;
1987;SDS011;12775;46.994;15.498;2023-05-10T04:46:58;7.90;;;7.20;;
1987;SDS011;12775;46.994;15.498;2023-05-10T04:49:25;5.90;;;5.34;;
1987;SDS011;12775;46.994;15.498;2023-05-10T04:51:53;7.16;;;5.20;;
1987;SDS011;12775;46.994;15.498;2023-05-10T04:54:21;10.84;;;6.18;;
1987;SDS011;12775;46.994;15.498;2023-05-10T04:56:48;7.28;;;6.60;;
1987;SDS011;12775;46.994;15.498;2023-05-10T04:59:15;12.00;;;5.50;;
1987;SDS011;12775;46.994;15.498;2023-05-10T05:01:43;6.74;;;6.14;;
1987;SDS011;12775;46.994;15.498;2023-05-10T05:04:10;5.92;;;5.34;;
1987;SDS011;12775;46.994;15.498;2023-05-10T05:06:37;8.98;;;6.56;;
1987;SDS011;12775;46.994;15.498;2023-05-10T05:09:05;5.88;;;5.38;;
1987;SDS011;12775;46.994;15.498;2023-05-10T05:11:32;7.46;;;6.56;;
1987;SDS011;12775;46.994;15.498;2023-05-10T05:14:00;8.78;;;7.12;;
1987;SDS011;12775;46.994;15.498;2023-05-10T05:16:27;15.96;;;7.22;;
1987;SDS011;12775;46.994;15.498;2023-05-10T05:18:54;8.46;;;6.74;;
1987;SDS011;12775;46.994;15.498;2023-05-10T05:21:22;7.16;;;6.46;;
1987;SDS011;12775;46.994;15.498;2023-05-10T05:23:48;14.40;;;7.28;;
1987;SDS011;12775;46.994;15.498;2023-05-10T05:26:15;7.90;;;7.10;;
1987;SDS011;12775;46.994;15.498;2023-05-10T05:28:41;14.00;;;7.60;;
1987;SDS011;12775;46.994;15.498;2023-05-10T05:31:10;8.48;;;7.16;;
1987;SDS011;12775;46.994;15.498;2023-05-10T05:33:37;11.12;;;7.64;;
1987;SDS011;12775;46.994;15.498;2023-05-10T05:36:05;8.52;;;7.62;;
1987;SDS011;12775;46.994;15.498;2023-05-10T05:38:32;10.16;;;8.18;;
1987;SDS011;12775;46.994;15.498;2023-05-10T05:40:59;8.70;;;7.80;;
1987;SDS011;12775;46.994;15.498;2023-05-10T05:43:27;9.56;;;7.72;;
1987;SDS011;12775;46.994;15.498;2023-05-10T05:45:54;8.94;;;8.00;;
1987;SDS011;12775;46.994;15.498;2023-05-10T05:48:22;10.30;;;9.02;;
1987;SDS011;12775;46.994;15.498;2023-05-10T05:50:49;9.68;;;7.02;;
1987;SDS011;12775;46.994;15.498;2023-05-10T05:53:16;8.62;;;7.72;;
1987;SDS011;12775;46.994;15.498;2023-05-10T05:58:17;10.72;;;9.02;;
1987;SDS011;12775;46.994;15.498;2023-05-10T06:00:45;8.98;;;8.08;;
1987;SDS011;12775;46.994;15.498;2023-05-10T06:03:12;12.88;;;8.18;;
1987;SDS011;12775;46.994;15.498;2023-05-10T06:05:39;9.36;;;7.78;;
1987;SDS011;12775;46.994;15.498;2023-05-10T06:08:07;8.52;;;7.10;;
1987;SDS011;12775;46.994;15.498;2023-05-10T06:10:34;12.48;;;8.40;;
1987;SDS011;12775;46.994;15.498;2023-05-10T06:13:02;8.00;;;7.26;;
1987;SDS011;12775;46.994;15.498;2023-05-10T06:15:28;11.88;;;7.84;;
1987;SDS011;12775;46.994;15.498;2023-05-10T06:17:55;8.82;;;7.92;;
1987;SDS011;12775;46.994;15.498;2023-05-10T06:20:24;11.50;;;8.56;;
1987;SDS011;12775;46.994;15.498;2023-05-10T06:22:51;9.82;;;8.82;;
1987;SDS011;12775;46.994;15.498;2023-05-10T06:25:18;8.82;;;7.94;;
1987;SDS011;12775;46.994;15.498;2023-05-10T06:27:46;9.30;;;8.40;;
1987;SDS011;12775;46.994;15.498;2023-05-10T06:30:14;9.70;;;8.82;;
1987;SDS011;12775;46.994;15.498;2023-05-10T06:32:41;10.94;;;9.06;;
1987;SDS011;12775;46.994;15.498;2023-05-10T06:35:08;8.08;;;7.02;;
1987;SDS011;12775;46.994;15.498;2023-05-10T06:37:36;11.88;;;9.10;;
1987;SDS011;12775;46.994;15.498;2023-05-10T06:40:03;9.40;;;8.36;;
1987;SDS011;12775;46.994;15.498;2023-05-10T06:42:31;10.90;;;9.38;;
1987;SDS011;12775;46.994;15.498;2023-05-10T06:44:59;10.12;;;8.30;;
1987;SDS011;12775;46.994;15.498;2023-05-10T06:47:27;9.90;;;8.48;;
1987;SDS011;12775;46.994;15.498;2023-05-10T06:49:55;9.28;;;8.24;;
1987;SDS011;12775;46.994;15.498;2023-05-10T06:52:22;8.70;;;7.86;;
1987;SDS011;12775;46.994;15.498;2023-05-10T06:54:49;8.36;;;7.62;;
1987;SDS011;12775;46.994;15.498;2023-05-10T06:57:16;10.36;;;9.28;;
1987;SDS011;12775;46.994;15.498;2023-05-10T06:59:43;10.52;;;8.46;;
1987;SDS011;12775;46.994;15.498;2023-05-10T07:02:11;14.26;;;9.68;;
1987;SDS011;12775;46.994;15.498;2023-05-10T07:04:38;10.24;;;9.04;;
1987;SDS011;12775;46.994;15.498;2023-05-10T07:07:05;10.44;;;9.52;;
1987;SDS011;12775;46.994;15.498;2023-05-10T07:09:32;9.40;;;8.54;;
1987;SDS011;12775;46.994;15.498;2023-05-10T07:12:00;9.50;;;8.60;;
1987;SDS011;12775;46.994;15.498;2023-05-10T07:14:28;11.76;;;9.34;;
1987;SDS011;12775;46.994;15.498;2023-05-10T07:16:55;13.24;;;8.70;;
1987;SDS011;12775;46.994;15.498;2023-05-10T07:19:23;10.66;;;8.14;;
1987;SDS011;12775;46.994;15.498;2023-05-10T07:21:50;10.24;;;9.16;;
1987;SDS011;12775;46.994;15.498;2023-05-10T07:24:17;10.66;;;9.66;;
1987;SDS011;12775;46.994;15.498;2023-05-10T07:26:45;11.58;;;8.96;;
1987;SDS011;12775;46.994;15.498;2023-05-10T07:29:12;10.60;;;8.64;;
1987;SDS011;12775;46.994;15.498;2023-05-10T07:31:40;11.12;;;7.28;;
1987;SDS011;12775;46.994;15.498;2023-05-10T07:34:06;11.18;;;9.00;;
1987;SDS011;12775;46.994;15.498;2023-05-10T07:36:35;10.46;;;8.62;;
1987;SDS011;12775;46.994;15.498;2023-05-10T07:39:02;10.08;;;8.74;;
1987;SDS011;12775;46.994;15.498;2023-05-10T07:41:30;9.84;;;8.94;;
1987;SDS011;12775;46.994;15.498;2023-05-10T07:43:57;8.54;;;7.56;;
1987;SDS011;12775;46.994;15.498;2023-05-10T07:46:25;8.86;;;7.96;;
1987;SDS011;12775;46.994;15.498;2023-05-10T07:48:51;9.20;;;8.14;;
1987;SDS011;12775;46.994;15.498;2023-05-10T07:51:19;8.56;;;7.46;;
1987;SDS011;12775;46.994;15.498;2023-05-10T07:53:46;8.58;;;7.78;;
1987;SDS011;12775;46.994;15.498;2023-05-10T07:56:21;8.56;;;7.60;;
1987;SDS011;12775;46.994;15.498;2023-05-10T07:58:47;8.98;;;8.12;;
1987;SDS011;12775;46.994;15.498;2023-05-10T08:01:14;11.38;;;7.68;;
1987;SDS011;12775;46.994;15.498;2023-05-10T08:03:42;8.26;;;7.46;;
1987;SDS011;12775;46.994;15.498;2023-05-10T08:06:09;10.68;;;8.66;;
1987;SDS011;12775;46.994;15.498;2023-05-10T08:08:36;7.56;;;6.86;;
1987;SDS011;12775;46.994;15.498;2023-05-10T08:11:04;9.84;;;7.40;;
1987;SDS011;12775;46.994;15.498;2023-05-10T08:13:31;9.04;;;8.14;;
1987;SDS011;12775;46.994;15.498;2023-05-10T08:15:59;9.26;;;7.62;;
1987;SDS011;12775;46.994;15.498;2023-05-10T08:18:26;9.00;;;7.14;;
1987;SDS011;12775;46.994;15.498;2023-05-10T08:20:53;12.42;;;7.98;;
1987;SDS011;12775;46.994;15.498;2023-05-10T08:23:22;12.64;;;6.96;;
1987;SDS011;12775;46.994;15.498;2023-05-10T08:25:49;8.50;;;7.64;;
1987;SDS011;12775;46.994;15.498;2023-05-10T08:28:16;10.00;;;8.08;;
1987;SDS011;12775;46.994;15.498;2023-05-10T08:30:43;15.88;;;8.10;;
1987;SDS011;12775;46.994;15.498;2023-05-10T08:33:10;8.24;;;7.48;;
1987;SDS011;12775;46.994;15.498;2023-05-10T08:35:38;7.28;;;6.58;;
1987;SDS011;12775;46.994;15.498;2023-05-10T08:38:06;9.22;;;7.96;;
1987;SDS011;12775;46.994;15.498;2023-05-10T08:40:34;9.82;;;8.42;;
1987;SDS011;12775;46.994;15.498;2023-05-10T08:43:04;10.50;;;8.42;;
1987;SDS011;12775;46.994;15.498;2023-05-10T08:45:32;9.92;;;8.66;;
1987;SDS011;12775;46.994;15.498;2023-05-10T08:48:01;8.74;;;7.94;;
1987;SDS011;12775;46.994;15.498;2023-05-10T08:50:26;10.76;;;8.62;;
1987;SDS011;12775;46.994;15.498;2023-05-10T08:52:53;8.86;;;7.94;;
1987;SDS011;12775;46.994;15.498;2023-05-10T08:55:19;8.82;;;7.80;;
1987;SDS011;12775;46.994;15.498;2023-05-10T08:57:47;8.94;;;8.12;;
1987;SDS011;12775;46.994;15.498;2023-05-10T09:00:14;9.60;;;8.70;;
1987;SDS011;12775;46.994;15.498;2023-05-10T09:02:42;7.98;;;7.18;;
1987;SDS011;12775;46.994;15.498;2023-05-10T09:05:08;13.72;;;8.56;;
1987;SDS011;12775;46.994;15.498;2023-05-10T09:07:35;9.04;;;8.14;;
1987;SDS011;12775;46.994;15.498;2023-05-10T09:10:02;7.54;;;6.76;;
1987;SDS011;12775;46.994;15.498;2023-05-10T09:12:30;8.18;;;7.46;;
1987;SDS011;12775;46.994;15.498;2023-05-10T09:14:57;8.56;;;6.44;;
1987;SDS011;12775;46.994;15.498;2023-05-10T09:17:24;9.66;;;8.56;;
1987;SDS011;12775;46.994;15.498;2023-05-10T09:19:58;9.36;;;7.14;;
1987;SDS011;12775;46.994;15.498;2023-05-10T09:22:26;8.18;;;7.36;;
1987;SDS011;12775;46.994;15.498;2023-05-10T09:27:31;7.54;;;6.80;;
1987;SDS011;12775;46.994;15.498;2023-05-10T09:29:57;6.92;;;6.22;;
1987;SDS011;12775;46.994;15.498;2023-05-10T09:32:35;7.22;;;6.62;;
1987;SDS011;12775;46.994;15.498;2023-05-10T09:35:07;7.52;;;6.82;;
1987;SDS011;12775;46.994;15.498;2023-05-10T09:37:34;7.78;;;7.08;;
1987;SDS011;12775;46.994;15.498;2023-05-10T09:40:04;7.50;;;6.84;;
1987;SDS011;12775;46.994;15.498;2023-05-10T09:42:28;7.30;;;6.64;;
1987;SDS011;12775;46.994;15.498;2023-05-10T09:45:00;7.68;;;6.88;;
1987;SDS011;12775;46.994;15.498;2023-05-10T09:47:26;7.90;;;7.20;;
1987;SDS011;12775;46.994;15.498;2023-05-10T09:49:54;8.06;;;7.36;;
1987;SDS011;12775;46.994;15.498;2023-05-10T09:52:21;8.74;;;7.40;;
1987;SDS011;12775;46.994;15.498;2023-05-10T09:54:52;6.74;;;6.10;;
1987;SDS011;12775;46.994;15.498;2023-05-10T09:57:20;7.38;;;6.78;;
1987;SDS011;12775;46.994;15.498;2023-05-10T09:59:46;7.12;;;6.48;;
1987;SDS011;12775;46.994;15.498;2023-05-10T10:02:13;7.18;;;6.48;;
1987;SDS011;12775;46.994;15.498;2023-05-10T10:04:42;6.92;;;5.88;;
1987;SDS011;12775;46.994;15.498;2023-05-10T10:07:09;6.76;;;5.80;;
1987;SDS011;12775;46.994;15.498;2023-05-10T10:09:38;5.90;;;5.40;;
1987;SDS011;12775;46.994;15.498;2023-05-10T10:12:05;6.20;;;5.70;;
1987;SDS011;12775;46.994;15.498;2023-05-10T10:14:33;7.54;;;6.84;;
1987;SDS011;12775;46.994;15.498;2023-05-10T10:17:00;7.84;;;7.10;;
1987;SDS011;12775;46.994;15.498;2023-05-10T10:19:27;8.36;;;7.54;;
1987;SDS011;12775;46.994;15.498;2023-05-10T10:21:54;7.96;;;7.30;;
1987;SDS011;12775;46.994;15.498;2023-05-10T10:24:20;7.88;;;6.86;;
1987;SDS011;12775;46.994;15.498;2023-05-10T10:26:48;8.80;;;6.78;;
1987;SDS011;12775;46.994;15.498;2023-05-10T10:29:18;6.66;;;6.16;;
1987;SDS011;12775;46.994;15.498;2023-05-10T10:31:46;7.22;;;6.62;;
1987;SDS011;12775;46.994;15.498;2023-05-10T10:34:22;8.34;;;7.40;;
1987;SDS011;12775;46.994;15.498;2023-05-10T10:36:51;7.60;;;6.90;;
1987;SDS011;12775;46.994;15.498;2023-05-10T10:39:17;6.96;;;6.36;;
1987;SDS011;12775;46.994;15.498;2023-05-10T10:41:51;6.76;;;6.16;;
1987;SDS011;12775;46.994;15.498;2023-05-10T10:44:26;6.90;;;6.20;;
1987;SDS011;12775;46.994;15.498;2023-05-10T10:49:31;7.48;;;6.76;;
1987;SDS011;12775;46.994;15.498;2023-05-10T10:54:32;6.86;;;6.26;;
1987;SDS011;12775;46.994;15.498;2023-05-10T10:57:15;7.72;;;6.86;;
1987;SDS011;12775;46.994;15.498;2023-05-10T10:59:42;6.20;;;5.60;;
1987;SDS011;12775;46.994;15.498;2023-05-10T11:02:09;6.88;;;6.38;;
1987;SDS011;12775;46.994;15.498;2023-05-10T11:04:42;7.06;;;6.36;;
1987;SDS011;12775;46.994;15.498;2023-05-10T11:09:42;6.40;;;5.70;;
1987;SDS011;12775;46.994;15.498;2023-05-10T11:12:08;5.30;;;4.66;;
1987;SDS011;12775;46.994;15.498;2023-05-10T11:14:35;5.26;;;4.86;;
1987;SDS011;12775;46.994;15.498;2023-05-10T11:17:02;4.96;;;4.56;;
1987;SDS011;12775;46.994;15.498;2023-05-10T11:19:28;5.30;;;4.80;;
1987;SDS011;12775;46.994;15.498;2023-05-10T11:24:37;5.70;;;5.00;;
1987;SDS011;12775;46.994;15.498;2023-05-10T11:27:04;9.04;;;5.58;;
1987;SDS011;12775;46.994;15.498;2023-05-10T11:29:30;5.64;;;5.24;;
1987;SDS011;12775;46.994;15.498;2023-05-10T11:31:57;9.70;;;6.24;;
1987;SDS011;12775;46.994;15.498;2023-05-10T11:34:26;6.16;;;5.56;;
1987;SDS011;12775;46.994;15.498;2023-05-10T11:36:56;8.16;;;5.00;;
1987;SDS011;12775;46.994;15.498;2023-05-10T11:39:27;5.72;;;5.22;;
1987;SDS011;12775;46.994;15.498;2023-05-10T11:41:54;6.08;;;5.52;;
1987;SDS011;12775;46.994;15.498;2023-05-10T11:44:20;4.90;;;4.50;;
1987;SDS011;12775;46.994;15.498;2023-05-10T11:46:48;7.46;;;6.70;;
1987;SDS011;12775;46.994;15.498;2023-05-10T11:49:15;5.52;;;5.10;;
1987;SDS011;12775;46.994;15.498;2023-05-10T11:51:41;5.22;;;4.72;;
1987;SDS011;12775;46.994;15.498;2023-05-10T11:54:09;8.00;;;5.14;;
1987;SDS011;12775;46.994;15.498;2023-05-10T11:56:35;5.68;;;5.18;;
1987;SDS011;12775;46.994;15.498;2023-05-10T11:59:01;5.82;;;5.22;;
1987;SDS011;12775;46.994;15.498;2023-05-10T12:01:28;4.64;;;4.34;;
1987;SDS011;12775;46.994;15.498;2023-05-10T12:03:55;5.04;;;4.64;;
1987;SDS011;12775;46.994;15.498;2023-05-10T12:06:21;5.98;;;5.38;;
1987;SDS011;12775;46.994;15.498;2023-05-10T12:08:48;7.22;;;4.98;;
1987;SDS011;12775;46.994;15.498;2023-05-10T12:11:14;6.64;;;5.94;;
1987;SDS011;12775;46.994;15.498;2023-05-10T12:13:42;5.90;;;5.40;;
1987;SDS011;12775;46.994;15.498;2023-05-10T12:16:13;5.72;;;5.22;;
1987;SDS011;12775;46.994;15.498;2023-05-10T12:18:41;5.04;;;4.64;;
1987;SDS011;12775;46.994;15.498;2023-05-10T12:21:08;5.22;;;4.82;;
1987;SDS011;12775;46.994;15.498;2023-05-10T12:23:34;5.30;;;4.90;;
1987;SDS011;12775;46.994;15.498;2023-05-10T12:26:02;6.64;;;6.04;;
1987;SDS011;12775;46.994;15.498;2023-05-10T12:28:29;5.44;;;4.90;;
1987;SDS011;12775;46.994;15.498;2023-05-10T12:30:56;5.86;;;5.20;;
1987;SDS011;12775;46.994;15.498;2023-05-10T12:33:22;7.72;;;6.32;;
1987;SDS011;12775;46.994;15.498;2023-05-10T12:35:50;5.88;;;5.38;;
1987;SDS011;12775;46.994;15.498;2023-05-10T12:38:24;5.16;;;4.76;;
1987;SDS011;12775;46.994;15.498;2023-05-10T12:40:54;5.48;;;4.98;;
1987;SDS011;12775;46.994;15.498;2023-05-10T12:43:20;4.70;;;4.32;;
1987;SDS011;12775;46.994;15.498;2023-05-10T12:45:48;5.50;;;5.04;;
1987;SDS011;12775;46.994;15.498;2023-05-10T12:48:15;4.56;;;4.10;;
1987;SDS011;12775;46.994;15.498;2023-05-10T12:50:41;4.96;;;4.56;;
1987;SDS011;12775;46.994;15.498;2023-05-10T12:53:07;4.82;;;4.52;;
1987;SDS011;12775;46.994;15.498;2023-05-10T12:55:34;5.60;;;5.10;;
1987;SDS011;12775;46.994;15.498;2023-05-10T12:58:01;7.96;;;5.10;;
1987;SDS011;12775;46.994;15.498;2023-05-10T13:00:28;5.42;;;4.92;;
1987;SDS011;12775;46.994;15.498;2023-05-10T13:02:55;6.50;;;5.90;;
1987;SDS011;12775;46.994;15.498;2023-05-10T13:05:22;6.16;;;5.76;;
1987;SDS011;12775;46.994;15.498;2023-05-10T13:07:50;10.00;;;6.10;;
1987;SDS011;12775;46.994;15.498;2023-05-10T13:10:16;6.70;;;6.20;;
1987;SDS011;12775;46.994;15.498;2023-05-10T13:12:43;6.70;;;6.20;;
1987;SDS011;12775;46.994;15.498;2023-05-10T13:15:10;6.36;;;5.96;;
1987;SDS011;12775;46.994;15.498;2023-05-10T13:17:37;7.50;;;5.58;;
1987;SDS011;12775;46.994;15.498;2023-05-10T13:20:04;8.44;;;7.00;;
1987;SDS011;12775;46.994;15.498;2023-05-10T13:22:32;6.78;;;6.08;;
1987;SDS011;12775;46.994;15.498;2023-05-10T13:24:58;6.54;;;6.04;;
1987;SDS011;12775;46.994;15.498;2023-05-10T13:27:25;6.16;;;5.76;;
1987;SDS011;12775;46.994;15.498;2023-05-10T13:29:53;6.46;;;5.96;;
1987;SDS011;12775;46.994;15.498;2023-05-10T13:32:21;6.40;;;5.88;;
1987;SDS011;12775;46.994;15.498;2023-05-10T13:34:50;7.16;;;6.08;;
1987;SDS011;12775;46.994;15.498;2023-05-10T13:37:18;6.86;;;6.22;;
1987;SDS011;12775;46.994;15.498;2023-05-10T13:39:45;6.18;;;5.68;;
1987;SDS011;12775;46.994;15.498;2023-05-10T13:42:12;6.20;;;5.60;;
1987;SDS011;12775;46.994;15.498;2023-05-10T13:44:39;7.30;;;6.60;;
1987;SDS011;12775;46.994;15.498;2023-05-10T13:47:05;5.74;;;5.22;;
1987;SDS011;12775;46.994;15.498;2023-05-10T13:49:32;6.06;;;5.56;;
1987;SDS011;12775;46.994;15.498;2023-05-10T13:51:59;6.74;;;6.14;;
1987;SDS011;12775;46.994;15.498;2023-05-10T13:54:25;6.22;;;5.72;;
1987;SDS011;12775;46.994;15.498;2023-05-10T13:56:52;6.46;;;5.74;;
1987;SDS011;12775;46.994;15.498;2023-05-10T13:59:18;6.16;;;5.66;;
1987;SDS011;12775;46.994;15.498;2023-05-10T14:01:45;5.82;;;5.22;;
1987;SDS011;12775;46.994;15.498;2023-05-10T14:04:11;4.80;;;4.50;;
1987;SDS011;12775;46.994;15.498;2023-05-10T14:06:38;6.24;;;5.58;;
1987;SDS011;12775;46.994;15.498;2023-05-10T14:09:05;5.78;;;5.40;;
1987;SDS011;12775;46.994;15.498;2023-05-10T14:11:31;6.06;;;5.46;;
1987;SDS011;12775;46.994;15.498;2023-05-10T14:13:58;5.90;;;5.50;;
1987;SDS011;12775;46.994;15.498;2023-05-10T14:16:24;5.20;;;4.80;;
1987;SDS011;12775;46.994;15.498;2023-05-10T14:18:52;6.32;;;5.00;;
1987;SDS011;12775;46.994;15.498;2023-05-10T14:21:19;5.40;;;5.00;;
1987;SDS011;12775;46.994;15.498;2023-05-10T14:23:46;5.78;;;5.38;;
1987;SDS011;12775;46.994;15.498;2023-05-10T14:26:13;6.00;;;5.50;;
1987;SDS011;12775;46.994;15.498;2023-05-10T14:28:39;5.20;;;4.80;;
1987;SDS011;12775;46.994;15.498;2023-05-10T14:31:06;4.20;;;3.90;;
1987;SDS011;12775;46.994;15.498;2023-05-10T14:33:32;5.02;;;4.62;;
1987;SDS011;12775;46.994;15.498;2023-05-10T14:35:59;5.64;;;5.14;;
1987;SDS011;12775;46.994;15.498;2023-05-10T14:38:26;4.92;;;4.52;;
1987;SDS011;12775;46.994;15.498;2023-05-10T14:40:52;5.46;;;4.98;;
1987;SDS011;12775;46.994;15.498;2023-05-10T14:43:21;4.52;;;4.22;;
1987;SDS011;12775;46.994;15.498;2023-05-10T14:45:48;5.48;;;4.74;;
1987;SDS011;12775;46.994;15.498;2023-05-10T14:48:14;4.60;;;4.20;;
1987;SDS011;12775;46.994;15.498;2023-05-10T14:50:42;4.64;;;4.34;;
1987;SDS011;12775;46.994;15.498;2023-05-10T14:53:15;4.37;;;4.07;;
1987;SDS011;12775;46.994;15.498;2023-05-10T14:55:42;4.56;;;4.16;;
1987;SDS011;12775;46.994;15.498;2023-05-10T14:58:08;4.28;;;3.90;;
1987;SDS011;12775;46.994;15.498;2023-05-10T15:00:35;4.72;;;4.12;;
1987;SDS011;12775;46.994;15.498;2023-05-10T15:03:02;4.78;;;4.32;;
1987;SDS011;12775;46.994;15.498;2023-05-10T15:05:28;4.08;;;3.78;;
1987;SDS011;12775;46.994;15.498;2023-05-10T15:07:55;5.48;;;4.66;;
1987;SDS011;12775;46.994;15.498;2023-05-10T15:10:22;4.46;;;4.16;;
1987;SDS011;12775;46.994;15.498;2023-05-10T15:12:49;4.20;;;3.70;;
1987;SDS011;12775;46.994;15.498;2023-05-10T15:15:16;13.60;;;3.88;;
1987;SDS011;12775;46.994;15.498;2023-05-10T15:17:42;4.74;;;4.28;;
1987;SDS011;12775;46.994;15.498;2023-05-10T15:20:09;3.88;;;3.58;;